Terminal Aerodrome Forecast
Issued by NWS Chicago, IL

Current Version | Previous Version | Text Only | Print | Product List | Glossary On
Versions: 1 2 3 4 5 6 7 8 9 10 11 12 13 14 15 16 17 18 19 20 21 22 23 24 25 26 27 28 29 30 31 32 33 34 35 36 37 38
000
FTUS43 KLOT 011900 AAA
TAFRFD
TAF AMD
KRFD 011940Z 0120/0218 04023G33KT 1/2SM -SN BLSN OVC005
      TEMPO 0120/0124 1/4SM SN BLSN
     FM020400 01020G30KT 1 1/2SM -SN BLSN OVC010
     FM020600 35016G23KT 3SM BLSN BKN020 BKN060
     FM021200 33008KT P6SM SCT200=

USA.gov is the U.S. government's official web portal to all federal, state and local government web resources and services.